createdAt,value
2022-10-06T00:00:37.249Z,10.72
2022-10-06T00:03:03.879Z,10.74
2022-10-06T00:05:31.145Z,10.63
2022-10-06T00:07:57.754Z,10.52
2022-10-06T00:10:24.393Z,10.62
2022-10-06T00:12:51.342Z,10.55
2022-10-06T00:15:19.676Z,10.54
2022-10-06T00:17:46.449Z,10.34
2022-10-06T00:20:12.934Z,10.31
2022-10-06T00:22:41.396Z,10.35
2022-10-06T00:25:08.629Z,10.49
2022-10-06T00:27:47.097Z,10.42
2022-10-06T00:30:15.066Z,10.37
2022-10-06T00:32:41.526Z,10.30
2022-10-06T00:35:09.162Z,10.30
2022-10-06T00:37:36.980Z,10.40
2022-10-06T00:40:09.082Z,10.40
2022-10-06T00:42:48.517Z,10.36
2022-10-06T00:45:16.326Z,10.25
2022-10-06T00:47:42.762Z,10.22
2022-10-06T00:50:11.715Z,10.14
2022-10-06T00:52:39.385Z,10.24
2022-10-06T00:55:09.388Z,10.24
2022-10-06T00:57:37.358Z,10.09
2022-10-06T01:00:06.090Z,10.09
2022-10-06T01:02:37.288Z,10.18
2022-10-06T01:05:05.282Z,10.09
2022-10-06T01:07:32.261Z,10.10
2022-10-06T01:09:59.173Z,10.17
2022-10-06T01:12:27.597Z,10.22
2022-10-06T01:14:54.407Z,10.25
2022-10-06T01:17:36.322Z,10.19
2022-10-06T01:20:09.010Z,10.34
2022-10-06T01:22:35.752Z,10.25
2022-10-06T01:25:03.217Z,10.12
2022-10-06T01:27:30.781Z,9.95
2022-10-06T01:29:57.833Z,9.90
2022-10-06T01:32:25.503Z,9.68
2022-10-06T01:34:52.928Z,9.69
2022-10-06T01:37:21.096Z,9.78
2022-10-06T01:39:47.683Z,9.68
2022-10-06T01:42:14.123Z,9.78
2022-10-06T01:44:40.655Z,9.69
2022-10-06T01:47:07.535Z,9.69
2022-10-06T01:49:34.226Z,9.69
2022-10-06T01:52:01.019Z,9.66
2022-10-06T01:54:27.520Z,9.44
2022-10-06T01:56:55.398Z,9.48
2022-10-06T01:59:21.890Z,9.50
2022-10-06T02:01:48.583Z,9.57
2022-10-06T02:04:15.165Z,9.61
2022-10-06T02:06:41.877Z,9.51
2022-10-06T02:09:08.773Z,9.51
2022-10-06T02:11:38.666Z,9.50
2022-10-06T02:14:05.398Z,9.32
2022-10-06T02:16:32.301Z,9.39
2022-10-06T02:18:58.758Z,9.60
2022-10-06T02:21:25.333Z,9.66
2022-10-06T02:23:51.818Z,9.39
2022-10-06T02:26:19.145Z,9.49
2022-10-06T02:28:47.416Z,9.51
2022-10-06T02:31:18.432Z,9.46
2022-10-06T02:33:45.349Z,9.34
2022-10-06T02:36:13.413Z,9.27
2022-10-06T02:38:41.574Z,9.17
2022-10-06T02:41:10.046Z,9.13
2022-10-06T02:43:37.361Z,9.28
2022-10-06T02:46:13.813Z,9.14
2022-10-06T02:48:45.885Z,9.23
2022-10-06T02:51:15.437Z,9.25
2022-10-06T02:53:43.982Z,9.32
2022-10-06T02:56:11.678Z,9.13
2022-10-06T02:58:42.787Z,8.99
2022-10-06T03:01:17.148Z,9.09
2022-10-06T03:03:43.875Z,8.87
2022-10-06T03:06:23.812Z,9.01
2022-10-06T03:08:58.555Z,8.93
2022-10-06T03:11:26.755Z,8.99
2022-10-06T03:13:53.462Z,8.69
2022-10-06T03:16:21.562Z,8.92
2022-10-06T03:18:49.953Z,8.97
2022-10-06T03:21:20.646Z,9.07
2022-10-06T03:23:48.055Z,9.07
2022-10-06T03:26:15.666Z,9.13
2022-10-06T03:28:42.232Z,8.87
2022-10-06T03:31:08.979Z,8.86
2022-10-06T03:33:35.528Z,8.82
2022-10-06T03:36:03.730Z,8.87
2022-10-06T03:38:31.858Z,8.80
2022-10-06T03:41:02.267Z,8.90
2022-10-06T03:43:28.718Z,8.87
2022-10-06T03:45:56.796Z,8.72
2022-10-06T03:48:23.950Z,8.75
2022-10-06T03:50:54.436Z,8.94
2022-10-06T03:53:25.513Z,8.85
2022-10-06T03:55:59.606Z,8.75
2022-10-06T03:58:27.245Z,8.85
2022-10-06T04:01:01.049Z,8.73
2022-10-06T04:03:27.882Z,8.66
2022-10-06T04:05:56.115Z,8.78
2022-10-06T04:08:24.626Z,8.75
2022-10-06T04:10:51.357Z,8.88
2022-10-06T04:13:21.381Z,8.77
2022-10-06T04:15:48.993Z,8.88
2022-10-06T04:18:15.946Z,8.82
2022-10-06T04:20:42.582Z,8.85
2022-10-06T04:23:09.360Z,8.61
2022-10-06T04:25:35.812Z,8.69
2022-10-06T04:28:02.444Z,8.69
2022-10-06T04:30:29.279Z,8.66
2022-10-06T04:32:55.737Z,8.69
2022-10-06T04:35:23.304Z,8.47
2022-10-06T04:37:50.233Z,8.56
2022-10-06T04:40:16.874Z,8.68
2022-10-06T04:42:43.459Z,8.70
2022-10-06T04:45:13.666Z,8.72
2022-10-06T04:47:41.841Z,8.66
2022-10-06T04:50:09.474Z,8.69
2022-10-06T04:52:36.711Z,8.59
2022-10-06T04:55:03.387Z,8.66
2022-10-06T04:57:29.861Z,8.54
2022-10-06T05:00:15.333Z,8.72
2022-10-06T05:02:44.694Z,8.61
2022-10-06T05:05:11.210Z,8.54
2022-10-06T05:07:37.730Z,8.76
2022-10-06T05:10:04.370Z,8.85
2022-10-06T05:12:31.827Z,8.79
2022-10-06T05:14:58.537Z,8.76
2022-10-06T05:17:25.336Z,8.97
2022-10-06T05:19:53.769Z,8.94
2022-10-06T05:22:20.209Z,8.78
2022-10-06T05:24:46.641Z,8.78
2022-10-06T05:27:13.113Z,8.87
2022-10-06T05:29:39.711Z,8.95
2022-10-06T05:32:08.015Z,8.91
2022-10-06T05:34:36.174Z,8.84
2022-10-06T05:37:02.595Z,8.93
2022-10-06T05:39:29.070Z,8.95
2022-10-06T05:41:57.401Z,9.07
2022-10-06T05:44:24.737Z,9.31
2022-10-06T05:46:51.353Z,9.20
2022-10-06T05:49:18.834Z,9.14
2022-10-06T05:51:53.155Z,9.24
2022-10-06T05:54:24.279Z,9.20
2022-10-06T05:56:50.718Z,9.51
2022-10-06T05:59:17.303Z,9.76
2022-10-06T06:01:44.264Z,9.84
2022-10-06T06:04:18.211Z,9.84
2022-10-06T06:06:54.294Z,9.96
2022-10-06T06:09:23.235Z,10.14
2022-10-06T06:11:54.446Z,10.42
2022-10-06T06:14:47.980Z,10.64
2022-10-06T06:17:18.969Z,10.61
2022-10-06T06:19:45.670Z,11.03
2022-10-06T06:22:12.391Z,11.35
2022-10-06T06:24:42.128Z,11.84
2022-10-06T06:27:09.693Z,12.42
2022-10-06T06:29:36.125Z,12.95
2022-10-06T06:32:02.979Z,13.40
2022-10-06T06:34:30.038Z,13.71
2022-10-06T06:37:01.204Z,13.88
2022-10-06T06:39:32.005Z,14.20
2022-10-06T06:41:58.473Z,14.22
2022-10-06T06:44:45.126Z,14.81
2022-10-06T06:47:20.907Z,15.19
2022-10-06T06:49:49.947Z,15.48
2022-10-06T06:52:16.773Z,15.37
2022-10-06T06:54:43.264Z,15.58
2022-10-06T06:57:13.247Z,15.50
2022-10-06T06:59:39.991Z,15.69
2022-10-06T07:02:09.867Z,16.02
2022-10-06T07:04:38.391Z,16.65
2022-10-06T07:07:07.452Z,16.72
2022-10-06T07:09:36.209Z,17.29
2022-10-06T07:12:06.790Z,17.21
2022-10-06T07:14:33.289Z,16.91
2022-10-06T07:17:19.912Z,16.44
2022-10-06T07:20:07.797Z,16.47
2022-10-06T07:22:53.758Z,17.44
2022-10-06T07:25:26.221Z,17.62
2022-10-06T07:28:00.136Z,18.15
2022-10-06T07:30:40.658Z,18.18
2022-10-06T07:33:11.185Z,17.63
2022-10-06T07:35:39.133Z,18.39
2022-10-06T07:38:08.080Z,19.25
2022-10-06T07:40:50.494Z,19.56
2022-10-06T07:43:23.141Z,20.01
2022-10-06T07:45:51.217Z,20.27
2022-10-06T07:48:31.823Z,20.26
2022-10-06T07:51:03.149Z,20.73
2022-10-06T07:53:36.054Z,21.07
2022-10-06T07:56:08.789Z,20.85
2022-10-06T07:58:41.845Z,20.92
2022-10-06T08:01:09.784Z,20.24
2022-10-06T08:03:40.247Z,20.53
2022-10-06T08:06:06.924Z,20.72
2022-10-06T08:08:37.695Z,20.20
2022-10-06T08:11:05.229Z,20.38
2022-10-06T08:13:34.665Z,21.16
2022-10-06T08:16:08.454Z,20.19
2022-10-06T08:18:46.145Z,20.78
2022-10-06T08:21:14.210Z,21.72
2022-10-06T08:23:42.299Z,21.38
2022-10-06T08:26:10.159Z,21.69
2022-10-06T08:28:37.021Z,21.56
2022-10-06T08:31:07.286Z,22.74
2022-10-06T08:33:35.931Z,22.77
2022-10-06T08:36:08.595Z,22.34
2022-10-06T08:38:36.554Z,22.21
2022-10-06T08:41:23.291Z,21.52
2022-10-06T08:43:59.190Z,22.37
2022-10-06T08:46:28.178Z,22.45
2022-10-06T08:48:54.689Z,23.53
2022-10-06T08:51:21.187Z,22.63
2022-10-06T08:54:05.882Z,23.24
2022-10-06T08:56:44.965Z,22.74
2022-10-06T08:59:12.031Z,23.00
2022-10-06T09:01:41.962Z,23.19
2022-10-06T09:04:10.735Z,22.13
2022-10-06T09:06:38.045Z,22.66
2022-10-06T09:09:25.371Z,22.74
2022-10-06T09:12:00.103Z,23.93
2022-10-06T09:14:33.189Z,24.19
2022-10-06T09:17:02.889Z,24.40
2022-10-06T09:19:55.768Z,25.08
2022-10-06T09:22:23.099Z,24.64
2022-10-06T09:24:56.052Z,24.94
2022-10-06T09:27:24.283Z,24.81
2022-10-06T09:29:51.491Z,24.75
2022-10-06T09:32:18.919Z,25.38
2022-10-06T09:34:52.883Z,24.59
2022-10-06T09:37:19.415Z,25.08
2022-10-06T09:39:48.239Z,25.58
2022-10-06T09:42:23.915Z,25.52
2022-10-06T09:44:50.855Z,25.80
2022-10-06T09:47:22.716Z,25.56
2022-10-06T09:50:11.991Z,25.78
2022-10-06T09:52:39.186Z,26.28
2022-10-06T09:55:13.088Z,24.62
2022-10-06T09:57:47.326Z,25.86
2022-10-06T10:00:43.414Z,26.17
2022-10-06T10:03:13.750Z,27.01
2022-10-06T10:05:46.039Z,26.71
2022-10-06T10:08:23.864Z,25.86
2022-10-06T10:10:51.477Z,27.13
2022-10-06T10:13:20.182Z,27.06
2022-10-06T10:15:58.257Z,27.18
2022-10-06T10:18:30.298Z,26.33
2022-10-06T10:21:01.032Z,27.39
2022-10-06T10:23:33.367Z,26.60
2022-10-06T10:26:02.868Z,26.79
2022-10-06T10:28:35.587Z,26.69
2022-10-06T10:31:09.529Z,26.96
2022-10-06T10:33:54.002Z,25.61
2022-10-06T10:36:40.094Z,26.82
2022-10-06T10:39:11.530Z,27.32
2022-10-06T10:41:42.394Z,27.76
2022-10-06T10:44:10.242Z,27.52
2022-10-06T10:46:40.060Z,27.55
2022-10-06T10:49:21.075Z,27.39
2022-10-06T10:51:50.351Z,27.30
2022-10-06T10:54:21.315Z,26.95
2022-10-06T10:56:49.178Z,26.53
2022-10-06T10:59:19.527Z,26.60
2022-10-06T11:02:05.121Z,26.86
2022-10-06T11:04:31.803Z,25.58
2022-10-06T11:07:04.374Z,25.99
2022-10-06T11:09:54.141Z,26.80
2022-10-06T11:12:55.908Z,25.92
2022-10-06T11:15:46.039Z,25.65
2022-10-06T11:18:28.745Z,25.79
2022-10-06T11:20:58.192Z,25.77
2022-10-06T11:23:31.615Z,25.43
2022-10-06T11:26:05.112Z,25.59
2022-10-06T11:28:39.246Z,26.30
2022-10-06T11:31:09.115Z,26.61
2022-10-06T11:33:41.610Z,26.70
2022-10-06T11:36:13.783Z,27.69
2022-10-06T11:38:44.329Z,27.95
2022-10-06T11:41:21.235Z,28.27
2022-10-06T11:44:23.235Z,28.00
2022-10-06T11:46:52.532Z,28.83
2022-10-06T11:49:34.203Z,28.81
2022-10-06T11:52:08.334Z,28.31
2022-10-06T11:54:44.762Z,27.81
2022-10-06T11:57:29.409Z,27.78
2022-10-06T12:00:17.706Z,27.09
2022-10-06T12:02:47.453Z,26.97
2022-10-06T12:05:54.148Z,26.92
2022-10-06T12:08:08.545Z,26.64
2022-10-06T12:10:35.310Z,25.67
2022-10-06T12:13:51.359Z,25.87
2022-10-06T12:19:22.050Z,25.09
2022-10-06T12:21:53.196Z,25.30
2022-10-06T12:24:28.887Z,25.55
2022-10-06T12:27:07.623Z,25.67
2022-10-06T12:29:38.879Z,26.01
2022-10-06T12:32:24.198Z,25.83
2022-10-06T12:34:57.054Z,26.43
2022-10-06T12:37:32.761Z,26.96
2022-10-06T12:40:18.033Z,26.02
2022-10-06T12:42:44.497Z,24.89
2022-10-06T12:45:16.253Z,24.58
2022-10-06T12:47:44.169Z,24.87
2022-10-06T12:50:22.735Z,25.20
2022-10-06T12:53:05.456Z,25.76
2022-10-06T12:55:40.974Z,26.11
2022-10-06T12:58:17.942Z,25.65
2022-10-06T13:00:44.958Z,26.34
2022-10-06T13:03:19.259Z,27.36
2022-10-06T13:05:50.553Z,27.27
2022-10-06T13:08:25.026Z,27.12
2022-10-06T13:10:51.840Z,26.13
2022-10-06T13:13:24.193Z,26.38
2022-10-06T13:15:52.217Z,26.81
2022-10-06T13:18:19.602Z,26.59
2022-10-06T13:20:50.412Z,26.49
2022-10-06T13:23:25.963Z,26.75
2022-10-06T13:25:57.663Z,26.50
2022-10-06T13:28:25.972Z,26.66
2022-10-06T13:30:52.630Z,26.94
2022-10-06T13:33:19.655Z,26.89
2022-10-06T13:35:48.335Z,27.34
2022-10-06T13:38:14.863Z,27.42
2022-10-06T13:40:44.971Z,27.12
2022-10-06T13:43:14.600Z,26.60
2022-10-06T13:45:42.077Z,26.94
2022-10-06T13:48:15.132Z,26.62
2022-10-06T13:50:46.042Z,26.95
2022-10-06T13:53:26.719Z,26.55
2022-10-06T13:55:53.886Z,26.52
2022-10-06T13:58:25.311Z,26.01
2022-10-06T14:00:55.937Z,25.81
2022-10-06T14:03:23.351Z,25.99
2022-10-06T14:05:50.887Z,25.99
2022-10-06T14:08:24.076Z,25.46
2022-10-06T14:10:52.880Z,25.72
2022-10-06T14:13:27.415Z,25.45
2022-10-06T14:15:58.416Z,25.33
2022-10-06T14:18:26.789Z,25.34
2022-10-06T14:20:54.403Z,25.61
2022-10-06T14:23:39.667Z,25.21
2022-10-06T14:26:06.603Z,25.41
2022-10-06T14:28:33.183Z,25.56
2022-10-06T14:30:59.715Z,25.41
2022-10-06T14:33:26.610Z,25.25
2022-10-06T14:35:53.038Z,24.87
2022-10-06T14:38:19.745Z,24.54
2022-10-06T14:40:46.158Z,24.44
2022-10-06T14:43:12.923Z,24.51
2022-10-06T14:45:43.284Z,24.55
2022-10-06T14:48:10.544Z,24.44
2022-10-06T14:50:37.456Z,24.10
2022-10-06T14:53:04.224Z,24.22
2022-10-06T14:55:30.871Z,23.91
2022-10-06T14:57:57.654Z,23.89
2022-10-06T15:00:24.415Z,23.90
2022-10-06T15:02:50.930Z,23.44
2022-10-06T15:05:17.429Z,23.01
2022-10-06T15:08:02.563Z,22.81
2022-10-06T15:10:30.205Z,22.32
2022-10-06T15:12:57.074Z,22.27
2022-10-06T15:15:23.593Z,22.43
2022-10-06T15:17:50.107Z,22.47
2022-10-06T15:20:17.285Z,22.07
2022-10-06T15:22:44.366Z,22.17
2022-10-06T15:25:33.458Z,22.38
2022-10-06T15:28:21.272Z,22.48
2022-10-06T15:30:50.084Z,22.03
2022-10-06T15:33:17.176Z,21.94
2022-10-06T15:35:48.725Z,21.95
2022-10-06T15:38:15.178Z,22.13
2022-10-06T15:40:41.594Z,22.02
2022-10-06T15:43:08.011Z,21.83
2022-10-06T15:45:34.489Z,21.55
2022-10-06T15:48:00.892Z,21.37
2022-10-06T15:50:27.330Z,20.98
2022-10-06T15:52:53.719Z,20.87
2022-10-06T15:55:20.241Z,20.66
2022-10-06T15:57:46.646Z,20.85
2022-10-06T16:00:13.266Z,20.77
2022-10-06T16:02:40.140Z,20.38
2022-10-06T16:05:06.758Z,19.94
2022-10-06T16:07:34.022Z,19.64
2022-10-06T16:10:00.430Z,19.61
2022-10-06T16:12:28.471Z,19.71
2022-10-06T16:14:55.102Z,19.70
2022-10-06T16:17:21.503Z,19.40
2022-10-06T16:19:48.042Z,19.35
2022-10-06T16:22:16.132Z,19.10
2022-10-06T16:24:42.623Z,18.97
2022-10-06T16:27:13.001Z,18.73
2022-10-06T16:29:39.580Z,18.88
2022-10-06T16:32:06.058Z,18.52
2022-10-06T16:34:32.894Z,18.41
2022-10-06T16:36:59.322Z,18.47
2022-10-06T16:39:25.797Z,18.38
2022-10-06T16:41:52.291Z,18.46
2022-10-06T16:44:18.815Z,18.47
2022-10-06T16:46:45.405Z,18.45
2022-10-06T16:49:12.155Z,18.35
2022-10-06T16:51:39.774Z,18.25
2022-10-06T16:54:07.406Z,18.20
2022-10-06T16:56:38.089Z,18.06
2022-10-06T16:59:06.592Z,17.73
2022-10-06T17:01:34.663Z,17.82
2022-10-06T17:04:05.394Z,17.81
2022-10-06T17:06:33.874Z,17.62
2022-10-06T17:09:00.565Z,17.70
2022-10-06T17:11:27.231Z,17.66
2022-10-06T17:13:55.132Z,17.54
2022-10-06T17:16:23.077Z,17.48
2022-10-06T17:18:50.469Z,17.51
2022-10-06T17:21:43.253Z,17.47
2022-10-06T17:24:05.374Z,17.38
2022-10-06T17:26:32.729Z,17.42
2022-10-06T17:29:00.050Z,17.55
2022-10-06T17:31:32.554Z,17.37
2022-10-06T17:33:59.454Z,17.39
2022-10-06T17:36:26.329Z,17.27
2022-10-06T17:39:02.615Z,17.07
2022-10-06T17:41:30.555Z,17.09
2022-10-06T17:43:59.047Z,16.89
2022-10-06T17:46:26.379Z,16.89
2022-10-06T17:48:54.272Z,17.05
2022-10-06T17:51:22.303Z,17.12
2022-10-06T17:53:49.860Z,16.67
2022-10-06T17:56:17.797Z,16.60
2022-10-06T17:58:46.498Z,16.60
2022-10-06T18:01:14.785Z,16.65
2022-10-06T18:03:42.510Z,16.45
2022-10-06T18:06:11.791Z,16.53
2022-10-06T18:08:39.012Z,16.26
2022-10-06T18:11:24.629Z,16.34
2022-10-06T18:13:51.147Z,16.29
2022-10-06T18:16:25.057Z,16.18
2022-10-06T18:18:52.617Z,16.41
2022-10-06T18:21:20.074Z,16.42
2022-10-06T18:23:47.201Z,16.38
2022-10-06T18:26:17.186Z,16.32
2022-10-06T18:28:48.673Z,16.14
2022-10-06T18:31:16.427Z,16.20
2022-10-06T18:36:30.647Z,16.23
2022-10-06T18:38:57.895Z,16.13
2022-10-06T18:41:27.297Z,16.09
2022-10-06T18:43:57.824Z,15.95
2022-10-06T18:46:43.178Z,15.79
2022-10-06T18:49:15.315Z,15.65
2022-10-06T18:51:43.730Z,15.76
2022-10-06T18:54:15.199Z,15.82
2022-10-06T18:56:42.631Z,15.74
2022-10-06T18:59:12.150Z,15.64
2022-10-06T19:01:39.775Z,15.65
2022-10-06T19:04:09.747Z,15.59
2022-10-06T19:06:37.740Z,15.59
2022-10-06T19:09:05.154Z,15.32
2022-10-06T19:11:41.843Z,15.32
2022-10-06T19:14:08.715Z,15.30
2022-10-06T19:16:35.589Z,15.34
2022-10-06T19:19:10.542Z,15.13
2022-10-06T19:21:40.829Z,15.33
2022-10-06T19:24:08.795Z,15.26
2022-10-06T19:26:35.778Z,15.29
2022-10-06T19:29:03.828Z,15.00
2022-10-06T19:31:30.424Z,15.08
2022-10-06T19:34:01.587Z,14.88
2022-10-06T19:36:29.175Z,14.96
2022-10-06T19:38:57.483Z,15.05
2022-10-06T19:41:43.198Z,15.09
2022-10-06T19:44:09.805Z,14.90
2022-10-06T19:46:37.444Z,14.95
2022-10-06T19:49:05.905Z,14.74
2022-10-06T19:51:34.096Z,14.69
2022-10-06T19:54:02.614Z,14.64
2022-10-06T19:56:30.149Z,14.76
2022-10-06T19:58:58.402Z,14.71
2022-10-06T20:01:25.385Z,14.80
2022-10-06T20:03:51.982Z,14.67
2022-10-06T20:06:19.511Z,14.67
2022-10-06T20:08:46.435Z,14.52
2022-10-06T20:11:14.100Z,14.28
2022-10-06T20:13:41.235Z,14.16
2022-10-06T20:16:10.323Z,14.33
2022-10-06T20:18:43.688Z,14.48
2022-10-06T20:21:18.283Z,14.46
2022-10-06T20:23:49.146Z,14.43
2022-10-06T20:26:17.371Z,14.46
2022-10-06T20:28:44.224Z,14.50
2022-10-06T20:31:16.747Z,14.43
2022-10-06T20:33:46.259Z,14.42
2022-10-06T20:36:13.281Z,14.49
2022-10-06T20:38:58.458Z,14.52
2022-10-06T20:41:25.212Z,14.46
2022-10-06T20:43:53.928Z,14.20
2022-10-06T20:46:21.438Z,14.22
2022-10-06T20:48:49.543Z,14.21
2022-10-06T20:51:16.466Z,13.95
2022-10-06T20:53:42.932Z,13.98
2022-10-06T20:56:09.590Z,14.01
2022-10-06T20:58:36.264Z,14.02
2022-10-06T21:01:06.045Z,14.09
2022-10-06T21:03:33.204Z,13.98
2022-10-06T21:05:59.866Z,13.84
2022-10-06T21:08:26.398Z,13.93
2022-10-06T21:10:56.844Z,13.78
2022-10-06T21:13:23.285Z,13.88
2022-10-06T21:15:50.299Z,13.78
2022-10-06T21:18:17.354Z,13.80
2022-10-06T21:20:45.342Z,13.65
2022-10-06T21:23:13.224Z,13.71
2022-10-06T21:25:39.641Z,13.58
2022-10-06T21:28:06.328Z,13.60
2022-10-06T21:30:33.761Z,13.60
2022-10-06T21:33:00.389Z,13.54
2022-10-06T21:35:26.989Z,13.63
2022-10-06T21:37:53.477Z,13.69
2022-10-06T21:40:19.876Z,13.67
2022-10-06T21:42:46.281Z,13.55
2022-10-06T21:45:12.760Z,13.56
2022-10-06T21:47:39.160Z,13.55
2022-10-06T21:50:05.740Z,13.60
2022-10-06T21:52:32.216Z,13.62
2022-10-06T21:54:58.614Z,13.33
2022-10-06T21:57:25.047Z,13.50
2022-10-06T21:59:51.504Z,13.60
2022-10-06T22:02:17.918Z,13.33
2022-10-06T22:04:44.372Z,13.15
2022-10-06T22:07:10.837Z,13.28
2022-10-06T22:09:37.258Z,13.27
2022-10-06T22:12:04.719Z,13.24
2022-10-06T22:14:31.137Z,13.24
2022-10-06T22:16:57.632Z,13.26
2022-10-06T22:19:24.149Z,13.29
2022-10-06T22:21:50.627Z,13.24
2022-10-06T22:24:18.936Z,13.25
2022-10-06T22:26:45.845Z,13.36
2022-10-06T22:29:13.423Z,13.09
2022-10-06T22:31:41.346Z,12.89
2022-10-06T22:34:09.524Z,12.88
2022-10-06T22:36:36.009Z,12.83
2022-10-06T22:39:03.028Z,12.95
2022-10-06T22:41:29.742Z,12.91
2022-10-06T22:43:57.548Z,12.72
2022-10-06T22:46:25.080Z,12.78
2022-10-06T22:48:51.744Z,12.94
2022-10-06T22:51:18.264Z,12.96
2022-10-06T22:53:44.800Z,12.82
2022-10-06T22:56:11.201Z,12.83
2022-10-06T22:58:38.901Z,12.85
2022-10-06T23:01:09.881Z,12.66
2022-10-06T23:03:36.434Z,12.79
2022-10-06T23:06:02.979Z,12.82
2022-10-06T23:08:34.935Z,12.78
2022-10-06T23:11:05.984Z,12.76
2022-10-06T23:13:32.768Z,12.85
2022-10-06T23:16:07.759Z,12.64
2022-10-06T23:18:35.470Z,12.51
2022-10-06T23:21:02.745Z,12.55
2022-10-06T23:23:29.268Z,12.60
2022-10-06T23:25:55.724Z,12.54
2022-10-06T23:28:22.181Z,12.55
2022-10-06T23:30:48.632Z,12.63
2022-10-06T23:33:15.041Z,12.66
2022-10-06T23:35:41.449Z,12.59
2022-10-06T23:38:10.536Z,12.48
2022-10-06T23:40:37.400Z,12.37
2022-10-06T23:43:03.837Z,12.19
2022-10-06T23:45:30.336Z,12.12
2022-10-06T23:47:56.856Z,12.22
2022-10-06T23:50:23.269Z,12.21
2022-10-06T23:52:49.754Z,12.37
2022-10-06T23:55:16.169Z,12.23
2022-10-06T23:57:42.803Z,12.17
